createdAt,value
2018-05-27T00:01:15.845Z,21.10
2018-05-27T00:03:42.055Z,21.10
2018-05-27T00:06:09.014Z,20.90
2018-05-27T00:08:35.218Z,20.90
2018-05-27T00:11:02.174Z,20.70
2018-05-27T00:13:29.119Z,20.60
2018-05-27T00:15:56.107Z,20.50
2018-05-27T00:18:22.290Z,20.60
2018-05-27T00:20:49.242Z,20.50
2018-05-27T00:23:15.457Z,20.40
2018-05-27T00:25:42.418Z,20.40
2018-05-27T00:28:08.593Z,20.40
2018-05-27T00:30:34.826Z,20.40
2018-05-27T00:33:01.017Z,20.30
2018-05-27T00:35:27.201Z,20.30
2018-05-27T00:37:53.421Z,20.30
2018-05-27T00:40:19.622Z,20.30
2018-05-27T00:42:45.866Z,20.20
2018-05-27T00:45:12.084Z,20.20
2018-05-27T00:47:38.290Z,20.40
2018-05-27T00:50:04.505Z,20.50
2018-05-27T00:52:30.761Z,20.50
2018-05-27T00:54:56.979Z,20.50
2018-05-27T00:57:23.185Z,20.50
2018-05-27T00:59:49.413Z,20.50
2018-05-27T01:02:15.615Z,20.80
2018-05-27T01:04:42.590Z,20.80
2018-05-27T01:07:08.788Z,20.80
2018-05-27T01:09:35.733Z,20.60
2018-05-27T01:12:02.708Z,20.40
2018-05-27T01:14:28.911Z,20.40
2018-05-27T01:16:55.123Z,20.50
2018-05-27T01:19:22.090Z,20.40
2018-05-27T01:21:48.291Z,20.30
2018-05-27T01:24:15.249Z,20.10
2018-05-27T01:26:42.360Z,20.00
2018-05-27T01:29:08.574Z,20.00
2018-05-27T01:31:34.811Z,20.00
2018-05-27T01:34:01.072Z,20.10
2018-05-27T01:36:28.055Z,20.10
2018-05-27T01:38:54.252Z,20.10
2018-05-27T01:41:20.478Z,20.10
2018-05-27T01:43:47.601Z,20.00
2018-05-27T01:46:13.828Z,20.00
2018-05-27T01:48:40.044Z,19.90
2018-05-27T01:51:06.260Z,19.90
2018-05-27T01:53:32.503Z,19.80
2018-05-27T01:55:58.709Z,19.70
2018-05-27T01:58:24.941Z,19.70
2018-05-27T02:00:51.138Z,19.70
2018-05-27T02:03:17.370Z,19.70
2018-05-27T02:05:43.573Z,19.60
2018-05-27T02:08:10.501Z,19.60
2018-05-27T02:10:37.505Z,19.50
2018-05-27T02:13:03.810Z,19.50
2018-05-27T02:15:30.034Z,19.60
2018-05-27T02:17:56.226Z,19.60
2018-05-27T02:20:22.423Z,19.40
2018-05-27T02:22:48.618Z,19.30
2018-05-27T02:25:14.842Z,19.20
2018-05-27T02:27:41.041Z,19.10
2018-05-27T02:30:07.322Z,19.10
2018-05-27T02:32:33.553Z,19.00
2018-05-27T02:34:59.802Z,19.00
2018-05-27T02:37:26.006Z,19.00
2018-05-27T02:39:52.216Z,18.90
2018-05-27T02:42:18.451Z,19.10
2018-05-27T02:44:44.665Z,19.10
2018-05-27T02:47:10.948Z,19.00
2018-05-27T02:49:37.909Z,19.20
2018-05-27T02:52:04.930Z,19.20
2018-05-27T02:54:31.187Z,19.20
2018-05-27T02:56:58.152Z,19.00
2018-05-27T02:59:24.382Z,18.90
2018-05-27T03:01:51.304Z,18.80
2018-05-27T03:04:18.258Z,18.70
2018-05-27T03:06:45.194Z,18.60
2018-05-27T03:09:12.177Z,18.60
2018-05-27T03:11:38.391Z,18.60
2018-05-27T03:14:04.635Z,18.50
2018-05-27T03:16:30.863Z,18.40
2018-05-27T03:18:57.088Z,18.40
2018-05-27T03:21:24.178Z,18.30
2018-05-27T03:23:50.402Z,18.20
2018-05-27T03:26:16.593Z,18.20
2018-05-27T03:28:42.865Z,18.20
2018-05-27T03:31:09.097Z,18.20
2018-05-27T03:33:35.363Z,18.10
2018-05-27T03:36:01.563Z,18.10
2018-05-27T03:38:28.522Z,18.00
2018-05-27T03:40:55.455Z,18.00
2018-05-27T03:43:22.430Z,18.00
2018-05-27T03:45:48.624Z,18.00
2018-05-27T03:48:15.608Z,18.00
2018-05-27T03:50:41.802Z,18.00
2018-05-27T03:53:08.748Z,18.00
2018-05-27T03:55:35.725Z,18.00
2018-05-27T03:58:01.926Z,18.00
2018-05-27T04:00:28.894Z,18.20
2018-05-27T04:02:55.149Z,18.10
2018-05-27T04:05:33.584Z,18.20
2018-05-27T04:08:12.702Z,18.20
2018-05-27T04:10:38.917Z,18.20
2018-05-27T04:13:05.126Z,18.20
2018-05-27T04:15:31.336Z,18.20
2018-05-27T04:17:57.603Z,18.30
2018-05-27T04:20:23.822Z,18.30
2018-05-27T04:22:50.042Z,18.30
2018-05-27T04:25:16.291Z,18.30
2018-05-27T04:27:42.514Z,18.50
2018-05-27T04:30:08.721Z,18.60
2018-05-27T04:32:34.950Z,18.60
2018-05-27T04:35:01.178Z,18.60
2018-05-27T04:37:27.398Z,18.70
2018-05-27T04:39:53.589Z,18.60
2018-05-27T04:42:20.542Z,18.70
2018-05-27T04:44:46.740Z,18.70
2018-05-27T04:47:12.951Z,18.80
2018-05-27T04:49:39.141Z,18.80
2018-05-27T04:52:05.386Z,19.00
2018-05-27T04:54:31.614Z,19.20
2018-05-27T04:56:57.843Z,19.20
2018-05-27T04:59:24.037Z,19.20
2018-05-27T05:01:50.244Z,19.30
2018-05-27T05:04:17.240Z,19.70
2018-05-27T05:06:43.443Z,19.70
2018-05-27T05:09:09.681Z,20.00
2018-05-27T05:11:35.902Z,20.10
2018-05-27T05:14:02.162Z,20.30
2018-05-27T05:16:28.387Z,20.50
2018-05-27T05:18:54.598Z,20.70
2018-05-27T05:21:20.833Z,20.90
2018-05-27T05:23:47.024Z,21.00
2018-05-27T05:26:13.990Z,21.10
2018-05-27T05:28:40.221Z,21.00
2018-05-27T05:31:06.446Z,21.00
2018-05-27T05:33:32.667Z,21.00
2018-05-27T05:35:58.900Z,21.10
2018-05-27T05:38:25.132Z,21.20
2018-05-27T05:40:51.671Z,21.20
2018-05-27T05:43:18.035Z,21.20
2018-05-27T05:45:44.410Z,21.20
2018-05-27T05:48:10.647Z,21.30
2018-05-27T05:50:36.855Z,21.30
2018-05-27T05:53:03.928Z,21.50
2018-05-27T05:55:30.190Z,21.50
2018-05-27T05:57:56.394Z,21.60
2018-05-27T06:00:22.631Z,21.60
2018-05-27T06:02:48.849Z,21.80
2018-05-27T06:05:15.085Z,21.90
2018-05-27T06:07:41.277Z,22.00
2018-05-27T06:10:07.497Z,22.10
2018-05-27T06:12:34.500Z,22.10
2018-05-27T06:15:00.706Z,22.10
2018-05-27T06:17:26.960Z,22.20
2018-05-27T06:19:53.947Z,22.10
2018-05-27T06:22:20.154Z,22.10
2018-05-27T06:24:46.385Z,22.20
2018-05-27T06:27:13.354Z,22.40
2018-05-27T06:29:39.566Z,22.40
2018-05-27T06:32:06.605Z,22.70
2018-05-27T06:34:32.742Z,22.70
2018-05-27T06:36:59.735Z,23.20
2018-05-27T06:39:25.960Z,23.20
2018-05-27T06:41:52.200Z,23.50
2018-05-27T06:44:18.399Z,23.80
2018-05-27T06:46:44.630Z,24.00
2018-05-27T06:49:10.869Z,24.20
2018-05-27T06:51:37.100Z,24.40
2018-05-27T06:54:03.322Z,24.50
2018-05-27T06:56:29.559Z,24.80
2018-05-27T06:58:55.770Z,25.20
2018-05-27T07:01:21.979Z,25.60
2018-05-27T07:03:48.210Z,25.80
2018-05-27T07:06:14.415Z,26.00
2018-05-27T07:08:41.397Z,26.20
2018-05-27T07:11:07.598Z,26.20
2018-05-27T07:13:33.834Z,25.90
2018-05-27T07:16:00.031Z,25.70
2018-05-27T07:18:26.956Z,24.80
2018-05-27T07:20:53.165Z,24.70
2018-05-27T07:23:19.374Z,24.70
2018-05-27T07:25:45.599Z,24.60
2018-05-27T07:28:11.824Z,24.80
2018-05-27T07:30:38.873Z,24.80
2018-05-27T07:33:05.073Z,24.80
2018-05-27T07:35:32.107Z,25.20
2018-05-27T07:37:59.043Z,25.40
2018-05-27T07:40:25.259Z,25.40
2018-05-27T07:42:51.485Z,25.80
2018-05-27T07:45:17.693Z,26.10
2018-05-27T07:47:43.915Z,26.30
2018-05-27T07:50:10.122Z,26.60
2018-05-27T07:52:36.362Z,27.10
2018-05-27T07:55:02.605Z,27.50
2018-05-27T07:57:28.856Z,27.70
2018-05-27T07:59:55.070Z,27.90
2018-05-27T08:02:21.327Z,28.00
2018-05-27T08:04:48.262Z,28.50
2018-05-27T08:07:14.488Z,28.50
2018-05-27T08:09:40.691Z,29.10
2018-05-27T08:12:06.908Z,29.20
2018-05-27T08:14:33.201Z,29.80
2018-05-27T08:16:59.406Z,30.90
2018-05-27T08:19:26.387Z,32.30
2018-05-27T08:21:52.582Z,32.20
2018-05-27T08:24:18.803Z,33.30
2018-05-27T08:26:45.010Z,32.90
2018-05-27T08:29:11.337Z,34.10
2018-05-27T08:31:37.590Z,35.80
2018-05-27T08:34:03.860Z,37.00
2018-05-27T08:36:30.086Z,38.30
2018-05-27T08:38:56.302Z,39.40
2018-05-27T08:41:22.579Z,39.80
2018-05-27T08:43:48.810Z,39.70
2018-05-27T08:46:15.051Z,38.90
2018-05-27T08:48:41.245Z,37.30
2018-05-27T08:51:07.470Z,37.60
2018-05-27T08:53:33.691Z,38.80
2018-05-27T08:56:00.757Z,41.50
2018-05-27T08:58:26.983Z,41.50
2018-05-27T09:00:53.203Z,42.30
2018-05-27T09:03:19.447Z,42.20
2018-05-27T09:05:45.634Z,42.20
2018-05-27T09:08:11.894Z,41.50
2018-05-27T09:10:38.129Z,40.70
2018-05-27T09:13:04.370Z,41.30
2018-05-27T09:15:30.589Z,41.60
2018-05-27T09:17:56.834Z,40.70
2018-05-27T09:20:23.043Z,40.00
2018-05-27T09:22:49.294Z,39.70
2018-05-27T09:25:16.303Z,40.80
2018-05-27T09:27:42.605Z,40.70
2018-05-27T09:30:08.856Z,40.40
2018-05-27T09:32:35.089Z,40.60
2018-05-27T09:35:02.153Z,40.30
2018-05-27T09:37:28.385Z,40.30
2018-05-27T09:39:54.635Z,40.40
2018-05-27T09:42:21.621Z,40.50
2018-05-27T09:44:47.832Z,40.60
2018-05-27T09:47:14.063Z,40.40
2018-05-27T09:49:40.327Z,40.30
2018-05-27T09:52:06.623Z,40.90
2018-05-27T09:54:33.203Z,40.80
2018-05-27T09:56:59.450Z,41.00
2018-05-27T09:59:26.415Z,41.00
2018-05-27T10:01:52.637Z,41.00
2018-05-27T10:04:18.830Z,40.50
2018-05-27T10:06:45.078Z,40.00
2018-05-27T10:09:18.059Z,41.80
2018-05-27T10:11:45.607Z,42.10
2018-05-27T10:14:12.102Z,42.00
2018-05-27T10:16:39.195Z,42.10
2018-05-27T10:19:06.275Z,41.90
2018-05-27T10:21:32.582Z,41.90
2018-05-27T10:23:59.736Z,41.30
2018-05-27T10:26:26.758Z,42.20
2018-05-27T10:28:53.096Z,42.20
2018-05-27T10:31:20.136Z,45.30
2018-05-27T10:33:46.550Z,45.10
2018-05-27T10:36:13.069Z,45.80
2018-05-27T10:38:40.174Z,43.00
2018-05-27T10:41:07.222Z,42.70
2018-05-27T10:43:36.559Z,42.60
2018-05-27T10:46:02.889Z,42.40
2018-05-27T10:48:29.185Z,42.60
2018-05-27T10:50:55.522Z,42.70
2018-05-27T10:53:21.818Z,42.50
2018-05-27T10:55:48.144Z,42.70
2018-05-27T10:58:14.454Z,43.00
2018-05-27T11:00:40.836Z,43.30
2018-05-27T11:03:07.174Z,43.30
2018-05-27T11:05:33.512Z,42.80
2018-05-27T11:07:59.820Z,43.10
2018-05-27T11:10:26.852Z,43.00
2018-05-27T11:12:53.965Z,40.60
2018-05-27T11:15:20.264Z,40.50
2018-05-27T11:17:46.558Z,39.00
2018-05-27T11:20:13.676Z,36.30
2018-05-27T11:22:40.782Z,35.60
2018-05-27T11:25:07.080Z,35.60
2018-05-27T11:27:34.168Z,34.70
2018-05-27T11:30:00.547Z,34.60
2018-05-27T11:32:26.866Z,34.50
2018-05-27T11:34:53.175Z,34.50
2018-05-27T11:37:19.520Z,34.10
2018-05-27T11:39:45.860Z,33.60
2018-05-27T11:42:12.186Z,33.50
2018-05-27T11:44:38.494Z,33.40
2018-05-27T11:47:04.790Z,33.60
2018-05-27T11:49:31.099Z,33.60
2018-05-27T11:51:58.152Z,32.90
2018-05-27T11:54:25.259Z,32.90
2018-05-27T11:56:51.723Z,32.90
2018-05-27T11:59:18.767Z,33.00
2018-05-27T12:01:45.127Z,33.00
2018-05-27T12:04:12.127Z,32.70
2018-05-27T12:06:38.421Z,32.70
2018-05-27T12:09:04.863Z,32.30
2018-05-27T12:11:31.107Z,31.90
2018-05-27T12:13:57.522Z,31.60
2018-05-27T12:16:23.794Z,31.20
2018-05-27T12:18:50.821Z,30.50
2018-05-27T12:21:17.104Z,30.40
2018-05-27T12:23:43.432Z,30.00
2018-05-27T12:26:09.709Z,29.40
2018-05-27T12:28:36.005Z,27.50
2018-05-27T12:31:02.322Z,25.20
2018-05-27T12:33:28.604Z,23.90
2018-05-27T12:35:54.950Z,23.20
2018-05-27T12:38:21.292Z,22.70
2018-05-27T12:40:48.354Z,21.90
2018-05-27T12:43:14.723Z,21.90
2018-05-27T12:45:41.036Z,21.50
2018-05-27T12:48:07.350Z,21.10
2018-05-27T12:50:33.754Z,21.00
2018-05-27T12:53:00.859Z,20.60
2018-05-27T12:55:27.183Z,20.60
2018-05-27T12:57:53.455Z,20.60
2018-05-27T13:00:20.781Z,20.70
2018-05-27T13:02:47.226Z,20.60
2018-05-27T13:05:13.543Z,20.60
2018-05-27T13:07:39.936Z,20.60
2018-05-27T13:10:06.338Z,20.80
2018-05-27T13:12:33.346Z,20.90
2018-05-27T13:14:59.709Z,20.90
2018-05-27T13:17:26.811Z,20.90
2018-05-27T13:19:53.162Z,20.80
2018-05-27T13:22:19.502Z,20.80
2018-05-27T13:24:45.828Z,20.60
2018-05-27T13:27:12.181Z,20.40
2018-05-27T13:29:39.321Z,20.10
2018-05-27T13:32:06.735Z,20.10
2018-05-27T13:34:33.149Z,20.00
2018-05-27T13:36:59.636Z,19.90
2018-05-27T13:39:28.108Z,19.90
2018-05-27T13:41:56.168Z,19.90
2018-05-27T13:44:27.542Z,20.00
2018-05-27T13:46:53.890Z,20.00
2018-05-27T13:49:21.344Z,20.10
2018-05-27T13:51:52.894Z,20.20
2018-05-27T13:54:20.017Z,20.30
2018-05-27T13:56:46.343Z,20.30
2018-05-27T13:59:12.708Z,20.30
2018-05-27T14:01:39.806Z,20.40
2018-05-27T14:04:06.163Z,20.40
2018-05-27T14:06:32.561Z,20.60
2018-05-27T14:09:02.674Z,20.70
2018-05-27T14:11:28.987Z,20.90
2018-05-27T14:13:55.328Z,21.00
2018-05-27T14:16:21.688Z,21.20
2018-05-27T14:18:48.027Z,21.40
2018-05-27T14:21:14.400Z,21.80
2018-05-27T14:23:40.707Z,22.10
2018-05-27T14:26:07.096Z,22.50
2018-05-27T14:28:34.411Z,22.90
2018-05-27T14:31:00.862Z,23.10
2018-05-27T14:33:27.218Z,23.20
2018-05-27T14:35:53.582Z,23.30
2018-05-27T14:38:20.820Z,23.90
2018-05-27T14:40:47.163Z,23.80
2018-05-27T14:43:14.269Z,24.10
2018-05-27T14:45:40.801Z,24.10
2018-05-27T14:48:07.170Z,24.30
2018-05-27T14:50:33.656Z,24.20
2018-05-27T14:52:59.926Z,24.00
2018-05-27T14:55:26.419Z,23.80
2018-05-27T14:57:52.923Z,23.70
2018-05-27T15:00:19.322Z,23.70
2018-05-27T15:02:45.628Z,23.70
2018-05-27T15:05:11.928Z,23.50
2018-05-27T15:07:38.328Z,23.40
2018-05-27T15:10:04.755Z,23.30
2018-05-27T15:12:31.072Z,23.30
2018-05-27T15:14:58.255Z,23.00
2018-05-27T15:17:24.612Z,23.00
2018-05-27T15:19:50.948Z,22.90
2018-05-27T15:22:17.298Z,22.80
2018-05-27T15:24:43.626Z,22.70
2018-05-27T15:27:10.003Z,22.50
2018-05-27T15:29:37.084Z,21.90
2018-05-27T15:32:03.675Z,21.90
2018-05-27T15:34:30.104Z,21.40
2018-05-27T15:36:56.525Z,20.90
2018-05-27T15:39:22.896Z,20.40
2018-05-27T15:41:49.284Z,20.10
2018-05-27T15:44:15.719Z,19.90
2018-05-27T15:46:42.085Z,19.90
2018-05-27T15:49:09.108Z,19.90
2018-05-27T15:51:35.423Z,19.90
2018-05-27T15:54:01.764Z,20.00
2018-05-27T15:56:28.107Z,20.00
2018-05-27T15:58:55.184Z,20.00
2018-05-27T16:01:21.546Z,20.00
2018-05-27T16:03:47.908Z,20.00
2018-05-27T16:06:14.328Z,20.00
2018-05-27T16:08:40.702Z,19.90
2018-05-27T16:11:07.116Z,19.70
2018-05-27T16:13:33.801Z,19.60
2018-05-27T16:16:00.220Z,19.40
2018-05-27T16:18:26.656Z,19.40
2018-05-27T16:20:52.954Z,19.40
2018-05-27T16:23:20.116Z,19.30
2018-05-27T16:25:46.993Z,19.30
2018-05-27T16:28:13.379Z,19.30
2018-05-27T16:30:39.745Z,19.30
2018-05-27T16:33:06.143Z,19.20
2018-05-27T16:35:33.183Z,19.20
2018-05-27T16:38:00.277Z,19.10
2018-05-27T16:40:26.683Z,19.00
2018-05-27T16:42:53.813Z,18.90
2018-05-27T16:45:20.128Z,18.90
2018-05-27T16:47:47.186Z,18.80
2018-05-27T16:50:14.331Z,18.70
2018-05-27T16:52:41.460Z,18.60
2018-05-27T16:55:07.874Z,18.60
2018-05-27T16:57:34.277Z,18.50
2018-05-27T17:00:00.618Z,18.40
2018-05-27T17:02:26.934Z,18.40
2018-05-27T17:04:53.246Z,18.30
2018-05-27T17:07:19.585Z,18.30
2018-05-27T17:09:45.995Z,18.30
2018-05-27T17:12:13.098Z,18.20
2018-05-27T17:14:39.444Z,18.20
2018-05-27T17:17:05.846Z,18.20
2018-05-27T17:19:32.198Z,18.10
2018-05-27T17:21:58.496Z,18.20
2018-05-27T17:24:24.793Z,18.20
2018-05-27T17:26:51.882Z,18.30
2018-05-27T17:29:18.247Z,18.20
2018-05-27T17:31:44.572Z,18.30
2018-05-27T17:34:10.900Z,18.50
2018-05-27T17:36:37.309Z,18.60
2018-05-27T17:39:03.648Z,18.80
2018-05-27T17:41:29.946Z,19.00
2018-05-27T17:43:56.309Z,19.20
2018-05-27T17:46:22.704Z,19.30
2018-05-27T17:48:49.064Z,19.30
2018-05-27T17:51:15.403Z,19.30
2018-05-27T17:53:41.763Z,19.30
2018-05-27T17:56:08.129Z,19.10
2018-05-27T17:58:34.487Z,19.10
2018-05-27T18:01:01.810Z,19.20
2018-05-27T18:03:28.145Z,19.10
2018-05-27T18:05:54.470Z,19.20
2018-05-27T18:08:20.804Z,19.30
2018-05-27T18:10:47.135Z,19.30
2018-05-27T18:13:13.450Z,19.50
2018-05-27T18:15:40.605Z,19.40
2018-05-27T18:18:07.806Z,19.40
2018-05-27T18:20:37.785Z,19.40
2018-05-27T18:23:04.107Z,19.60
2018-05-27T18:25:30.438Z,19.60
2018-05-27T18:27:56.789Z,19.70
2018-05-27T18:30:23.126Z,19.60
2018-05-27T18:32:49.490Z,19.70
2018-05-27T18:35:15.780Z,19.70
2018-05-27T18:37:42.919Z,20.00
2018-05-27T18:40:09.274Z,20.00
2018-05-27T18:42:36.334Z,20.10
2018-05-27T18:45:02.762Z,20.10
2018-05-27T18:47:29.147Z,20.10
2018-05-27T18:49:55.508Z,20.10
2018-05-27T18:52:21.941Z,20.00
2018-05-27T18:54:48.306Z,20.00
2018-05-27T18:57:15.399Z,19.90
2018-05-27T18:59:44.849Z,19.90
2018-05-27T19:02:11.334Z,19.90
2018-05-27T19:04:37.683Z,19.80
2018-05-27T19:07:04.175Z,19.80
2018-05-27T19:09:31.273Z,20.10
2018-05-27T19:11:59.021Z,20.00
2018-05-27T19:14:26.439Z,20.20
2018-05-27T19:16:53.703Z,20.00
2018-05-27T19:19:20.091Z,20.00
2018-05-27T19:21:46.434Z,19.80
2018-05-27T19:24:12.757Z,19.80
2018-05-27T19:26:39.088Z,19.80
2018-05-27T19:29:05.431Z,19.80
2018-05-27T19:31:32.555Z,19.70
2018-05-27T19:33:58.919Z,19.70
2018-05-27T19:36:25.994Z,19.80
2018-05-27T19:38:52.602Z,19.80
2018-05-27T19:41:18.993Z,19.90
2018-05-27T19:43:45.321Z,19.80
2018-05-27T19:46:11.639Z,19.70
2018-05-27T19:48:37.982Z,19.50
2018-05-27T19:51:04.296Z,19.40
2018-05-27T19:53:30.838Z,19.20
2018-05-27T19:55:57.187Z,19.30
2018-05-27T19:58:23.710Z,19.20
2018-05-27T20:00:50.122Z,19.00
2018-05-27T20:03:16.485Z,18.90
2018-05-27T20:05:42.787Z,18.80
2018-05-27T20:08:09.214Z,18.70
2018-05-27T20:10:35.643Z,18.80
2018-05-27T20:13:02.105Z,18.90
2018-05-27T20:15:28.448Z,18.70
2018-05-27T20:17:54.887Z,18.60
2018-05-27T20:20:21.385Z,18.50
2018-05-27T20:22:47.734Z,18.40
2018-05-27T20:25:14.250Z,18.50
2018-05-27T20:27:40.585Z,18.70
2018-05-27T20:30:06.910Z,18.70
2018-05-27T20:32:33.282Z,18.90
2018-05-27T20:35:00.345Z,18.80
2018-05-27T20:37:27.436Z,18.80
2018-05-27T20:39:53.899Z,18.80
2018-05-27T20:42:20.224Z,18.90
2018-05-27T20:44:46.577Z,18.80
2018-05-27T20:47:12.925Z,18.80
2018-05-27T20:49:39.982Z,18.70
2018-05-27T20:52:06.354Z,18.70
2018-05-27T20:54:32.729Z,18.60
2018-05-27T20:56:59.068Z,18.50
2018-05-27T20:59:25.446Z,18.40
2018-05-27T21:01:51.888Z,18.40
2018-05-27T21:04:18.210Z,18.40
2018-05-27T21:06:44.518Z,18.40
2018-05-27T21:09:10.883Z,18.40
2018-05-27T21:11:37.268Z,18.30
2018-05-27T21:14:03.591Z,18.30
2018-05-27T21:16:29.963Z,18.30
2018-05-27T21:18:56.294Z,18.20
2018-05-27T21:21:23.608Z,18.10
2018-05-27T21:23:49.959Z,18.10
2018-05-27T21:26:16.332Z,18.10
2018-05-27T21:28:46.454Z,18.10
2018-05-27T21:31:12.821Z,18.20
2018-05-27T21:33:39.774Z,18.20
2018-05-27T21:36:06.078Z,18.10
2018-05-27T21:38:32.457Z,18.10
2018-05-27T21:40:58.786Z,18.10
2018-05-27T21:43:25.116Z,18.00
2018-05-27T21:45:51.413Z,17.90
2018-05-27T21:48:17.937Z,17.90
2018-05-27T21:50:44.380Z,17.90
2018-05-27T21:53:10.681Z,17.80
2018-05-27T21:55:37.797Z,17.70
2018-05-27T21:58:04.183Z,17.70
2018-05-27T22:00:30.615Z,17.70
2018-05-27T22:02:57.046Z,17.60
2018-05-27T22:05:23.964Z,17.50
2018-05-27T22:07:51.153Z,17.40
2018-05-27T22:10:18.322Z,17.40
2018-05-27T22:12:44.736Z,17.40
2018-05-27T22:15:11.044Z,17.40
2018-05-27T22:17:37.391Z,17.30
2018-05-27T22:20:03.774Z,17.30
2018-05-27T22:22:30.099Z,17.30
2018-05-27T22:24:56.632Z,17.20
2018-05-27T22:27:22.992Z,17.20
2018-05-27T22:29:50.101Z,17.10
2018-05-27T22:32:16.468Z,17.10
2018-05-27T22:34:48.551Z,17.00
2018-05-27T22:37:14.881Z,17.00
2018-05-27T22:39:41.226Z,17.00
2018-05-27T22:42:07.615Z,17.00
2018-05-27T22:44:34.659Z,17.00
2018-05-27T22:47:04.368Z,17.00
2018-05-27T22:49:31.659Z,16.90
2018-05-27T22:52:13.008Z,16.90
2018-05-27T22:54:40.103Z,16.90
2018-05-27T22:57:06.472Z,16.90
2018-05-27T22:59:33.511Z,16.90
2018-05-27T23:01:59.879Z,16.80
2018-05-27T23:04:26.877Z,16.80
2018-05-27T23:06:53.244Z,16.80
2018-05-27T23:09:20.266Z,16.70
2018-05-27T23:11:46.599Z,16.70
2018-05-27T23:14:12.967Z,16.70
2018-05-27T23:16:40.048Z,16.60
2018-05-27T23:19:06.422Z,16.60
2018-05-27T23:21:32.739Z,16.60
2018-05-27T23:23:59.087Z,16.50
2018-05-27T23:26:26.223Z,16.50
2018-05-27T23:28:52.534Z,16.50
2018-05-27T23:31:18.865Z,16.50
2018-05-27T23:33:45.168Z,16.50
2018-05-27T23:36:11.487Z,16.50
2018-05-27T23:38:38.488Z,16.40
2018-05-27T23:41:04.778Z,16.40
2018-05-27T23:43:31.103Z,16.30
2018-05-27T23:45:57.397Z,16.30
2018-05-27T23:48:24.446Z,16.20
2018-05-27T23:50:51.504Z,16.20
2018-05-27T23:53:17.918Z,16.10
2018-05-27T23:55:45.127Z,16.20
2018-05-27T23:58:11.504Z,16.20
